Wetterstation Vordersexau
Wetterdaten: Woche 21.03.16 - 27.03.16 (KW12)
Datum Zeit Temp. A. Feuchte A. Luftdruck Regen Wind Richtung Taupunkt Windchill Windben
21.03.2016 00:00 0,3 C 85 % 1016,3 hPa 0,0 l/m 0,0 km/h O-SO -1,9 C 0,3 C 0,0 km/h
21.03.2016 01:00 1,4 C 86 % 1015,9 hPa 0,0 l/m 0,0 km/h O-SO -0,7 C 1,4 C 0,0 km/h
21.03.2016 02:00 2,3 C 86 % 1015,8 hPa 0,0 l/m 0,0 km/h O-SO 0,2 C 2,3 C 0,0 km/h
21.03.2016 03:00 2,6 C 86 % 1015,8 hPa 0,0 l/m 0,0 km/h O-SO 0,5 C 2,6 C 0,0 km/h
21.03.2016 04:00 2,8 C 86 % 1015,5 hPa 0,0 l/m 0,0 km/h O-SO 0,7 C 2,8 C 0,0 km/h
21.03.2016 05:00 2,9 C 86 % 1015,6 hPa 0,0 l/m 0,0 km/h N 0,8 C 2,9 C 0,0 km/h
21.03.2016 06:00 2,9 C 86 % 1015,8 hPa 0,0 l/m 0,0 km/h N 0,8 C 2,9 C 0,0 km/h
21.03.2016 07:00 3,3 C 86 % 1016,2 hPa 0,0 l/m 0,0 km/h N 1,2 C 3,3 C 0,0 km/h
21.03.2016 08:00 3,9 C 85 % 1016,2 hPa 0,0 l/m 0,0 km/h N 1,6 C 3,9 C 0,0 km/h
21.03.2016 09:00 5,4 C 84 % 1016,4 hPa 0,0 l/m 0,0 km/h W-SW 2,9 C 5,4 C 0,0 km/h
21.03.2016 10:00 9,5 C 76 % 1016,3 hPa 0,0 l/m 0,0 km/h S 5,5 C 9,5 C 0,0 km/h
21.03.2016 11:00 15,7 C 50 % 1015,8 hPa 0,0 l/m 0,0 km/h NW 5,3 C 15,7 C 0,0 km/h
21.03.2016 12:00 15,7 C 48 % 1015,2 hPa 0,0 l/m 23,3 km/h N-NO 4,7 C 9,9 C 13,0 km/h
21.03.2016 13:00 15,8 C 44 % 1014,4 hPa 0,0 l/m 16,2 km/h N-NO 3,6 C 11,8 C 9,0 km/h
21.03.2016 14:00 14,6 C 44 % 1014,3 hPa 0,0 l/m 2,6 km/h N-NO 2,5 C 14,6 C 1,4 km/h
21.03.2016 15:00 18,4 C 37 % 1013,7 hPa 0,0 l/m 0,0 km/h N-NO 3,5 C 18,4 C 0,0 km/h
21.03.2016 16:00 18,9 C 36 % 1013,5 hPa 0,0 l/m 0,0 km/h N-NO 3,5 C 18,9 C 0,0 km/h
21.03.2016 17:00 18,3 C 36 % 1013,6 hPa 0,0 l/m 0,0 km/h N-NO 3,0 C 18,3 C 0,0 km/h
21.03.2016 18:00 9,6 C 55 % 1013,9 hPa 0,0 l/m 0,0 km/h N-NO 1,0 C 9,6 C 0,0 km/h
21.03.2016 19:00 8,4 C 61 % 1014,4 hPa 0,0 l/m 0,0 km/h N-NO 1,3 C 8,4 C 0,0 km/h
21.03.2016 20:00 7,4 C 63 % 1014,3 hPa 0,0 l/m 0,0 km/h NO 0,8 C 7,4 C 0,0 km/h
21.03.2016 21:00 6,4 C 69 % 1014,5 hPa 0,0 l/m 0,0 km/h O-SO 1,1 C 6,4 C 0,0 km/h
21.03.2016 22:00 6,2 C 72 % 1014,5 hPa 0,0 l/m 0,0 km/h O-SO 1,5 C 6,2 C 0,0 km/h
21.03.2016 23:00 5,4 C 73 % 1014,3 hPa 0,0 l/m 0,0 km/h O-SO 1,0 C 5,4 C 0,0 km/h
22.03.2016 00:00 4,8 C 76 % 1014,0 hPa 0,0 l/m 0,0 km/h O-SO 0,9 C 4,8 C 0,0 km/h
22.03.2016 01:00 4,6 C 78 % 1013,7 hPa 0,0 l/m 0,0 km/h O-SO 1,1 C 4,6 C 0,0 km/h
22.03.2016 02:00 3,2 C 79 % 1013,4 hPa 0,0 l/m 0,0 km/h O-SO -0,1 C 3,2 C 0,0 km/h
22.03.2016 03:00 1,9 C 81 % 1012,8 hPa 0,0 l/m 0,0 km/h O-SO -1,0 C 1,9 C 0,0 km/h
22.03.2016 04:00 1,3 C 83 % 1012,4 hPa 0,0 l/m 0,0 km/h O-NO -1,3 C 1,3 C 0,0 km/h
22.03.2016 05:00 1,1 C 84 % 1012,4 hPa 0,0 l/m 0,0 km/h O-SO -1,3 C 1,1 C 0,0 km/h
22.03.2016 06:00 2,1 C 85 % 1012,4 hPa 0,0 l/m 0,0 km/h O-SO -0,2 C 2,1 C 0,0 km/h
22.03.2016 07:00 3,6 C 84 % 1012,4 hPa 0,0 l/m 0,0 km/h N-NO 1,2 C 3,6 C 0,0 km/h
22.03.2016 08:00 6,2 C 78 % 1012,1 hPa 0,0 l/m 0,0 km/h N-NW 2,7 C 6,2 C 0,0 km/h
22.03.2016 09:00 10,4 C 66 % 1011,5 hPa 0,0 l/m 10,4 km/h O-NO 4,3 C 7,8 C 5,8 km/h
22.03.2016 10:00 14,9 C 48 % 1011,0 hPa 0,0 l/m 0,0 km/h SO 4,0 C 14,9 C 0,0 km/h
22.03.2016 11:00 12,9 C 52 % 1010,8 hPa 0,0 l/m 0,0 km/h S-SO 3,3 C 12,9 C 0,0 km/h
22.03.2016 12:00 15,1 C 44 % 1010,4 hPa 0,0 l/m 0,6 km/h O-SO 2,9 C 15,1 C 0,4 km/h
22.03.2016 13:00 17,3 C 39 % 1009,7 hPa 0,0 l/m 0,0 km/h N-NO 3,2 C 17,3 C 0,0 km/h
22.03.2016 14:00 16,9 C 36 % 1008,9 hPa 0,0 l/m 22,0 km/h N-NO 1,7 C 11,8 C 12,2 km/h
22.03.2016 15:00 17,9 C 37 % 1008,4 hPa 0,0 l/m 0,0 km/h NO 3,0 C 17,9 C 0,0 km/h
22.03.2016 16:00 19,4 C 32 % 1008,1 hPa 0,0 l/m 20,1 km/h N-NO 2,3 C 15,4 C 11,2 km/h
22.03.2016 17:00 14,6 C 39 % 1007,8 hPa 0,0 l/m 0,0 km/h N-NO 0,8 C 14,6 C 0,0 km/h
22.03.2016 18:00 11,8 C 42 % 1008,1 hPa 0,0 l/m 0,0 km/h O-NO -0,7 C 11,8 C 0,0 km/h
22.03.2016 19:00 7,3 C 53 % 1008,1 hPa 0,0 l/m 0,0 km/h O-NO -1,6 C 7,3 C 0,0 km/h
22.03.2016 20:00 7,2 C 56 % 1008,3 hPa 0,0 l/m 0,0 km/h O-NO -1,0 C 7,2 C 0,0 km/h
22.03.2016 21:00 6,6 C 59 % 1008,0 hPa 0,0 l/m 0,0 km/h O-SO -0,8 C 6,6 C 0,0 km/h
22.03.2016 22:00 3,4 C 66 % 1007,8 hPa 0,0 l/m 0,0 km/h O-NO -2,3 C 3,4 C 0,0 km/h
22.03.2016 23:00 3,4 C 70 % 1007,6 hPa 0,0 l/m 0,0 km/h O-NO -1,5 C 3,4 C 0,0 km/h
23.03.2016 00:00 1,6 C 73 % 1007,0 hPa 0,0 l/m 0,0 km/h O-NO -2,7 C 1,6 C 0,0 km/h
23.03.2016 01:00 1,0 C 77 % 1006,9 hPa 0,0 l/m 0,0 km/h SO -2,6 C 1,0 C 0,0 km/h
23.03.2016 02:00 1,0 C 80 % 1006,7 hPa 0,0 l/m 0,0 km/h SO -2,1 C 1,0 C 0,0 km/h
23.03.2016 03:00 2,8 C 80 % 1006,2 hPa 0,0 l/m 0,0 km/h SO -0,3 C 2,8 C 0,0 km/h
23.03.2016 04:00 2,5 C 81 % 1006,0 hPa 0,0 l/m 0,0 km/h SO -0,4 C 2,5 C 0,0 km/h
23.03.2016 05:00 3,5 C 81 % 1005,9 hPa 0,0 l/m 0,0 km/h SO 0,6 C 3,5 C 0,0 km/h
23.03.2016 06:00 3,3 C 81 % 1006,2 hPa 0,0 l/m 0,0 km/h O-SO 0,4 C 3,3 C 0,0 km/h
23.03.2016 07:00 4,6 C 81 % 1006,7 hPa 0,0 l/m 0,0 km/h NO 1,6 C 4,6 C 0,0 km/h
23.03.2016 08:00 6,2 C 80 % 1007,0 hPa 0,0 l/m 0,0 km/h S-SO 3,0 C 6,2 C 0,0 km/h
23.03.2016 09:00 9,6 C 72 % 1007,0 hPa 0,0 l/m 0,0 km/h N-NO 4,8 C 9,6 C 0,0 km/h
23.03.2016 10:00 10,1 C 70 % 1007,1 hPa 0,0 l/m 0,0 km/h N-NW 4,9 C 10,1 C 0,0 km/h
23.03.2016 11:00 11,8 C 64 % 1006,8 hPa 0,0 l/m 7,8 km/h N-NO 5,2 C 10,9 C 4,3 km/h
23.03.2016 12:00 10,7 C 62 % 1006,9 hPa 0,0 l/m 3,9 km/h NO 3,7 C 10,7 C 2,2 km/h
23.03.2016 13:00 11,5 C 60 % 1006,8 hPa 0,0 l/m 5,8 km/h O-NO 4,0 C 11,5 C 3,2 km/h
23.03.2016 14:00 11,1 C 59 % 1006,5 hPa 0,0 l/m 0,0 km/h O-NO 3,4 C 11,1 C 0,0 km/h
23.03.2016 15:00 11,1 C 56 % 1006,7 hPa 0,0 l/m 0,0 km/h N-NO 2,7 C 11,1 C 0,0 km/h
23.03.2016 16:00 8,9 C 66 % 1007,1 hPa 0,0 l/m 0,0 km/h N-NO 2,9 C 8,9 C 0,0 km/h
23.03.2016 17:00 8,3 C 68 % 1007,4 hPa 0,0 l/m 0,0 km/h SO 2,7 C 8,3 C 0,0 km/h
23.03.2016 18:00 7,4 C 75 % 1008,1 hPa 0,0 l/m 0,0 km/h SO 3,3 C 7,4 C 0,0 km/h
23.03.2016 19:00 6,1 C 80 % 1008,6 hPa 0,0 l/m 0,0 km/h SO 2,9 C 6,1 C 0,0 km/h
23.03.2016 20:00 5,5 C 84 % 1009,3 hPa 0,0 l/m 2,6 km/h SO 3,0 C 5,5 C 1,4 km/h
23.03.2016 21:00 4,7 C 86 % 1009,8 hPa 0,0 l/m 0,0 km/h O-SO 2,6 C 4,7 C 0,0 km/h
23.03.2016 22:00 4,1 C 86 % 1010,2 hPa 0,0 l/m 0,0 km/h SO 2,0 C 4,1 C 0,0 km/h
23.03.2016 23:00 2,5 C 87 % 1010,3 hPa 0,0 l/m 0,0 km/h SO 0,6 C 2,5 C 0,0 km/h
24.03.2016 00:00 1,4 C 87 % 1010,7 hPa 0,0 l/m 0,0 km/h O-NO -0,5 C 1,4 C 0,0 km/h
24.03.2016 01:00 1,1 C 87 % 1010,8 hPa 0,0 l/m 0,0 km/h SO -0,8 C 1,1 C 0,0 km/h
24.03.2016 02:00 0,4 C 87 % 1011,0 hPa 0,0 l/m 0,0 km/h O-SO -1,5 C 0,4 C 0,0 km/h
24.03.2016 03:00 -0,6 C 88 % 1011,0 hPa 0,0 l/m 0,0 km/h O-SO -2,3 C -0,6 C 0,0 km/h
24.03.2016 04:00 -0,5 C 88 % 1011,1 hPa 0,0 l/m 0,0 km/h O-SO -2,2 C -0,5 C 0,0 km/h
24.03.2016 05:00 -0,7 C 88 % 1011,5 hPa 0,0 l/m 0,0 km/h O-SO -2,4 C -0,7 C 0,0 km/h
24.03.2016 06:00 -0,5 C 88 % 1012,3 hPa 0,0 l/m 0,0 km/h O-SO -2,2 C -0,5 C 0,0 km/h
24.03.2016 07:00 1,2 C 87 % 1012,9 hPa 0,0 l/m 0,0 km/h O-SO -0,7 C 1,2 C 0,0 km/h
24.03.2016 08:00 2,6 C 87 % 1013,2 hPa 0,0 l/m 0,0 km/h SO 0,7 C 2,6 C 0,0 km/h
24.03.2016 09:00 5,8 C 87 % 1013,6 hPa 0,0 l/m 1,3 km/h SO 3,8 C 5,8 C 0,7 km/h
24.03.2016 10:00 10,4 C 77 % 1013,7 hPa 0,0 l/m 0,0 km/h W-NW 6,5 C 10,4 C 0,0 km/h
24.03.2016 11:00 14,9 C 59 % 1013,5 hPa 0,0 l/m 0,0 km/h N 7,0 C 14,9 C 0,0 km/h
24.03.2016 12:00 11,1 C 59 % 1013,6 hPa 0,0 l/m 0,0 km/h N-NW 3,4 C 11,1 C 0,0 km/h
24.03.2016 13:00 16,8 C 44 % 1013,3 hPa 0,0 l/m 0,0 km/h NW 4,5 C 16,8 C 0,0 km/h
24.03.2016 14:00 15,6 C 44 % 1013,2 hPa 0,0 l/m 5,2 km/h NW 3,4 C 15,6 C 2,9 km/h
24.03.2016 15:00 17,8 C 38 % 1013,1 hPa 0,0 l/m 0,0 km/h W-NW 3,3 C 17,8 C 0,0 km/h
24.03.2016 16:00 15,6 C 39 % 1013,4 hPa 0,0 l/m 0,0 km/h N-NO 1,7 C 15,6 C 0,0 km/h
24.03.2016 17:00 12,1 C 45 % 1013,2 hPa 0,0 l/m 0,0 km/h N-NO 0,5 C 12,1 C 0,0 km/h
24.03.2016 18:00 8,4 C 53 % 1013,6 hPa 0,0 l/m 0,0 km/h N-NO -0,6 C 8,4 C 0,0 km/h
24.03.2016 19:00 7,0 C 63 % 1014,0 hPa 0,0 l/m 0,0 km/h N-NO 0,4 C 7,0 C 0,0 km/h
24.03.2016 20:00 6,8 C 66 % 1014,4 hPa 0,0 l/m 0,0 km/h SO 0,9 C 6,8 C 0,0 km/h
24.03.2016 21:00 6,1 C 70 % 1014,2 hPa 0,0 l/m 0,0 km/h SO 1,0 C 6,1 C 0,0 km/h
24.03.2016 22:00 4,9 C 73 % 1014,4 hPa 0,0 l/m 0,0 km/h SO 0,5 C 4,9 C 0,0 km/h
24.03.2016 23:00 5,0 C 75 % 1014,4 hPa 0,0 l/m 0,0 km/h O-SO 0,9 C 5,0 C 0,0 km/h
25.03.2016 00:00 5,0 C 76 % 1014,3 hPa 0,0 l/m 0,0 km/h O-SO 1,1 C 5,0 C 0,0 km/h
25.03.2016 01:00 4,7 C 78 % 1014,4 hPa 0,0 l/m 0,0 km/h O-SO 1,2 C 4,7 C 0,0 km/h
25.03.2016 02:00 5,0 C 78 % 1014,2 hPa 0,0 l/m 0,0 km/h SO 1,5 C 5,0 C 0,0 km/h
25.03.2016 03:00 4,8 C 79 % 1014,0 hPa 0,0 l/m 1,3 km/h SO 1,5 C 4,8 C 0,7 km/h
25.03.2016 04:00 4,9 C 80 % 1013,8 hPa 0,0 l/m 0,0 km/h SO 1,7 C 4,9 C 0,0 km/h
25.03.2016 05:00 4,8 C 80 % 1014,2 hPa 0,0 l/m 0,0 km/h SO 1,6 C 4,8 C 0,0 km/h
25.03.2016 06:00 4,7 C 82 % 1014,4 hPa 0,0 l/m 0,0 km/h SO 1,9 C 4,7 C 0,0 km/h
25.03.2016 07:00 5,4 C 84 % 1014,4 hPa 0,4 l/m 0,0 km/h W-SW 2,9 C 5,4 C 0,0 km/h
25.03.2016 08:00 6,4 C 84 % 1014,4 hPa 0,0 l/m 20,1 km/h S 3,9 C -1,4 C 11,2 km/h
25.03.2016 09:00 5,9 C 85 % 1014,2 hPa 0,4 l/m 10,4 km/h SW 3,6 C 2,8 C 5,8 km/h
25.03.2016 10:00 6,8 C 84 % 1013,8 hPa 0,0 l/m 22,0 km/h S-SO 4,3 C -1,6 C 12,2 km/h
25.03.2016 11:00 7,6 C 81 % 1013,8 hPa 0,0 l/m 19,4 km/h W-SW 4,6 C 0,4 C 10,8 km/h
25.03.2016 12:00 7,6 C 81 % 1013,4 hPa 0,0 l/m 5,8 km/h W-SW 4,6 C 7,6 C 3,2 km/h
25.03.2016 13:00 6,8 C 86 % 1013,2 hPa 0,4 l/m 16,8 km/h SW 4,6 C 0,4 C 9,4 km/h
25.03.2016 14:00 7,1 C 85 % 1013,5 hPa 0,0 l/m 36,9 km/h W 4,8 C -4,9 C 20,5 km/h
25.03.2016 15:00 6,8 C 85 % 1013,6 hPa 0,4 l/m 12,3 km/h S-SW 4,5 C 2,7 C 6,8 km/h
25.03.2016 16:00 7,0 C 85 % 1014,0 hPa 0,0 l/m 20,7 km/h S-SW 4,7 C -0,8 C 11,5 km/h
25.03.2016 17:00 7,6 C 83 % 1014,4 hPa 0,0 l/m 17,5 km/h W-NW 4,9 C 1,1 C 9,7 km/h
25.03.2016 18:00 7,8 C 84 % 1014,9 hPa 0,0 l/m 24,0 km/h W-SW 5,3 C -0,9 C 13,3 km/h
25.03.2016 19:00 7,4 C 85 % 1015,5 hPa 0,0 l/m 10,4 km/h W-SW 5,0 C 4,5 C 5,8 km/h
25.03.2016 20:00 7,8 C 86 % 1016,2 hPa 0,0 l/m 0,0 km/h W 5,6 C 7,8 C 0,0 km/h
25.03.2016 21:00 7,7 C 86 % 1016,1 hPa 0,0 l/m 15,6 km/h S-SW 5,5 C 2,1 C 8,6 km/h
25.03.2016 22:00 7,5 C 87 % 1016,5 hPa 0,0 l/m 10,4 km/h SW 5,5 C 4,6 C 5,8 km/h
25.03.2016 23:00 7,9 C 87 % 1016,5 hPa 0,0 l/m 18,1 km/h NO 5,9 C 1,3 C 10,1 km/h
26.03.2016 00:00 7,2 C 87 % 1017,1 hPa 0,4 l/m 0,0 km/h NO 5,2 C 7,2 C 0,0 km/h
26.03.2016 01:00 6,8 C 87 % 1017,2 hPa 0,0 l/m 0,0 km/h NO 4,8 C 6,8 C 0,0 km/h
26.03.2016 02:00 7,2 C 87 % 1017,4 hPa 0,4 l/m 0,0 km/h NO 5,2 C 7,2 C 0,0 km/h
26.03.2016 03:00 7,2 C 87 % 1017,5 hPa 0,0 l/m 0,0 km/h N-NO 5,2 C 7,2 C 0,0 km/h
26.03.2016 04:00 7,2 C 87 % 1017,8 hPa 0,0 l/m 0,0 km/h N-NO 5,2 C 7,2 C 0,0 km/h
26.03.2016 05:00 6,9 C 87 % 1017,9 hPa 0,0 l/m 0,0 km/h N-NO 4,9 C 6,9 C 0,0 km/h
26.03.2016 06:00 6,1 C 87 % 1018,2 hPa 0,0 l/m 0,0 km/h NO 4,1 C 6,1 C 0,0 km/h
26.03.2016 07:00 7,1 C 85 % 1018,2 hPa 0,0 l/m 0,0 km/h O-SO 4,8 C 7,1 C 0,0 km/h
26.03.2016 08:00 14,1 C 84 % 1018,0 hPa 0,0 l/m 0,0 km/h NO 11,4 C 14,1 C 0,0 km/h
26.03.2016 09:00 16,1 C 68 % 1017,8 hPa 0,0 l/m 0,0 km/h W-NW 10,2 C 16,1 C 0,0 km/h
26.03.2016 10:00 17,2 C 61 % 1017,3 hPa 0,0 l/m 0,0 km/h W 9,6 C 17,2 C 0,0 km/h
26.03.2016 11:00 18,5 C 54 % 1016,6 hPa 0,0 l/m 0,0 km/h S 9,0 C 18,5 C 0,0 km/h
26.03.2016 12:00 19,5 C 50 % 1016,1 hPa 0,0 l/m 0,0 km/h SO 8,8 C 19,5 C 0,0 km/h
26.03.2016 13:00 20,3 C 47 % 1015,2 hPa 0,0 l/m 6,5 km/h N-NO 8,6 C 20,3 C 3,6 km/h
26.03.2016 14:00 22,8 C 40 % 1014,0 hPa 0,0 l/m 0,0 km/h W-NW 8,5 C 22,8 C 0,0 km/h
26.03.2016 15:00 24,4 C 38 % 1013,0 hPa 0,0 l/m 0,0 km/h W-NW 9,2 C 24,4 C 0,0 km/h
26.03.2016 16:00 25,8 C 35 % 1012,3 hPa 0,0 l/m 8,4 km/h W-NW 9,2 C 25,4 C 4,7 km/h
26.03.2016 17:00 23,1 C 37 % 1011,7 hPa 0,0 l/m 0,0 km/h SO 7,6 C 23,1 C 0,0 km/h
26.03.2016 18:00 14,9 C 55 % 1011,2 hPa 0,0 l/m 0,0 km/h SO 5,9 C 14,9 C 0,0 km/h
26.03.2016 19:00 14,9 C 55 % 1011,2 hPa 0,0 l/m 0,0 km/h SO 5,9 C 14,9 C 0,0 km/h
26.03.2016 20:00 12,6 C 56 % 1011,4 hPa 0,0 l/m 1,9 km/h S-SO 4,1 C 12,6 C 1,1 km/h
26.03.2016 21:00 11,0 C 64 % 1011,2 hPa 0,0 l/m 33,7 km/h NO 4,5 C 1,4 C 18,7 km/h
26.03.2016 22:00 8,5 C 69 % 1010,9 hPa 0,0 l/m 0,0 km/h NO 3,1 C 8,5 C 0,0 km/h
26.03.2016 23:00 7,6 C 73 % 1010,0 hPa 0,0 l/m 0,0 km/h SO 3,1 C 7,6 C 0,0 km/h
27.03.2016 00:00 7,6 C 73 % 1009,4 hPa 0,0 l/m 0,0 km/h SO 3,1 C 7,6 C 0,0 km/h
27.03.2016 01:00 6,9 C 75 % 1009,4 hPa 0,0 l/m 3,2 km/h N-NO 2,8 C 6,9 C 1,8 km/h
27.03.2016 02:00 4,9 C 78 % 1009,0 hPa 0,0 l/m 0,0 km/h N-NO 1,4 C 4,9 C 0,0 km/h
27.03.2016 03:00 3,9 C 81 % 1007,9 hPa 0,0 l/m 0,0 km/h O-SO 0,9 C 3,9 C 0,0 km/h
27.03.2016 04:00 6,0 C 81 % 1007,0 hPa 0,0 l/m 0,0 km/h SO 3,0 C 6,0 C 0,0 km/h
27.03.2016 05:00 6,5 C 79 % 1006,5 hPa 0,0 l/m 0,0 km/h O-NO 3,1 C 6,5 C 0,0 km/h
27.03.2016 06:00 6,6 C 79 % 1006,1 hPa 0,0 l/m 0,0 km/h W-NW 3,2 C 6,6 C 0,0 km/h
27.03.2016 07:00 6,9 C 81 % 1008,8 hPa 0,0 l/m 0,0 km/h W-SW 3,9 C 6,9 C 0,0 km/h
27.03.2016 08:00 11,2 C 69 % 1010,0 hPa 0,0 l/m 16,2 km/h NW 5,7 C 6,1 C 9,0 km/h
27.03.2016 09:00 10,2 C 74 % 1012,3 hPa 0,0 l/m 0,6 km/h NW 5,8 C 10,2 C 0,4 km/h
27.03.2016 10:00 8,6 C 81 % 1013,6 hPa 1,2 l/m 0,0 km/h S-SW 5,5 C 8,6 C 0,0 km/h
27.03.2016 11:00 9,2 C 83 % 1013,7 hPa 0,4 l/m 14,3 km/h S-SW 6,5 C 4,5 C 7,9 km/h
27.03.2016 12:00 10,8 C 76 % 1013,6 hPa 0,0 l/m 22,0 km/h W-SW 6,7 C 3,7 C 12,2 km/h
27.03.2016 13:00 11,8 C 72 % 1013,4 hPa 0,0 l/m 22,0 km/h W-SW 6,9 C 5,0 C 12,2 km/h
27.03.2016 14:00 11,6 C 70 % 1012,9 hPa 0,0 l/m 22,7 km/h W-SW 6,3 C 4,6 C 12,6 km/h
27.03.2016 15:00 12,1 C 68 % 1012,6 hPa 0,0 l/m 7,8 km/h S-SW 6,4 C 11,2 C 4,3 km/h
27.03.2016 16:00 11,8 C 66 % 1012,3 hPa 0,0 l/m 14,3 km/h SW 5,7 C 7,6 C 7,9 km/h
27.03.2016 17:00 11,4 C 63 % 1012,1 hPa 0,0 l/m 6,5 km/h SW 4,6 C 11,4 C 3,6 km/h
27.03.2016 18:00 10,4 C 66 % 1012,4 hPa 0,0 l/m 4,5 km/h S-SW 4,3 C 10,4 C 2,5 km/h
27.03.2016 19:00 11,6 C 59 % 1012,4 hPa 0,0 l/m 3,9 km/h S-SO 3,9 C 11,6 C 2,2 km/h
27.03.2016 20:00 7,2 C 71 % 1012,3 hPa 0,0 l/m 3,9 km/h S-SO 2,3 C 7,2 C 2,2 km/h
27.03.2016 21:00 5,4 C 76 % 1012,2 hPa 0,0 l/m 0,0 km/h O-NO 1,5 C 5,4 C 0,0 km/h
27.03.2016 22:00 4,2 C 80 % 1012,3 hPa 0,0 l/m 0,0 km/h SO 1,1 C 4,2 C 0,0 km/h
27.03.2016 23:00 3,4 C 83 % 1011,1 hPa 0,0 l/m 0,0 km/h O-NO 0,8 C 3,4 C 0,0 km/h
Min-Datum _ 24.03.16 22.03.16 23.03.16 - 21.03.16 - 23.03.16 25.03.16 21.03.16
_ Min-Zeit 05:41 16:41 05:41 - 00:41 - 00:41 14:41 00:41
Minimum _ -0,7 C 32 % 1005,9 hPa - 0,0 km/h - -2,7 C -4,9 C 0,0 km/h
Max-Datum _ 26.03.16 24.03.16 26.03.16 27.03.16 25.03.16 - 26.03.16 26.03.16 25.03.16
_ Max-Zeit 16:41 03:41 06:41 10:41 14:41 - 08:41 16:41 14:41
Maximum _ 25,8 C 88 % 1018,2 hPa 1,2 l/m 36,9 km/h
W
- 11,4 C 25,4 C 20,5 km/h
W
Durchschnitt _ 8,3 C 71 % 1012,3 hPa #4,1 l/m 3,4 km/h O-SO 2,9 C 7,4 C 1,9 km/h
www.sexauwetter.de